createdAt,value
2024-02-02T00:01:16.648Z,5.32
2024-02-02T00:03:45.081Z,5.16
2024-02-02T00:06:13.503Z,5.05
2024-02-02T00:08:41.663Z,5.09
2024-02-02T00:11:09.716Z,5.14
2024-02-02T00:13:38.249Z,5.12
2024-02-02T00:16:06.712Z,5.16
2024-02-02T00:18:34.758Z,5.29
2024-02-02T00:21:03.288Z,5.12
2024-02-02T00:23:31.405Z,5.28
2024-02-02T00:26:00.436Z,5.28
2024-02-02T00:28:28.338Z,5.18
2024-02-02T00:30:56.572Z,5.20
2024-02-02T00:33:24.521Z,5.19
2024-02-02T00:35:52.696Z,5.17
2024-02-02T00:38:20.704Z,5.09
2024-02-02T00:40:49.380Z,5.03
2024-02-02T00:43:17.521Z,5.08
2024-02-02T00:45:45.412Z,5.22
2024-02-02T00:48:13.324Z,5.19
2024-02-02T00:50:41.165Z,5.20
2024-02-02T00:53:08.893Z,5.13
2024-02-02T00:55:36.538Z,5.04
2024-02-02T00:58:04.460Z,5.00
2024-02-02T01:00:35.350Z,5.02
2024-02-02T01:03:04.046Z,5.14
2024-02-02T01:05:34.243Z,5.12
2024-02-02T01:08:03.601Z,5.12
2024-02-02T01:10:32.494Z,5.09
2024-02-02T01:13:00.934Z,5.15
2024-02-02T01:15:29.177Z,5.16
2024-02-02T01:17:57.448Z,5.01
2024-02-02T01:20:25.747Z,5.00
2024-02-02T01:23:43.885Z,5.10
2024-02-02T01:26:12.131Z,5.13
2024-02-02T01:28:40.383Z,5.07
2024-02-02T01:31:08.428Z,4.99
2024-02-02T01:33:36.689Z,4.99
2024-02-02T01:36:04.995Z,5.00
2024-02-02T01:38:32.834Z,5.04
2024-02-02T01:41:00.882Z,5.01
2024-02-02T01:43:28.919Z,4.99
2024-02-02T01:45:56.731Z,4.88
2024-02-02T01:48:25.836Z,4.96
2024-02-02T01:50:53.666Z,5.03
2024-02-02T01:53:21.576Z,5.03
2024-02-02T01:55:49.622Z,5.01
2024-02-02T01:58:17.547Z,5.05
2024-02-02T02:00:45.423Z,4.87
2024-02-02T02:03:13.430Z,4.85
2024-02-02T02:05:41.705Z,4.72
2024-02-02T02:08:09.529Z,4.79
2024-02-02T02:10:37.904Z,4.87
2024-02-02T02:13:06.270Z,4.79
2024-02-02T02:15:35.493Z,4.65
2024-02-02T02:18:03.683Z,4.75
2024-02-02T02:20:31.900Z,4.78
2024-02-02T02:22:59.548Z,4.72
2024-02-02T02:25:27.261Z,4.86
2024-02-02T02:27:55.016Z,4.78
2024-02-02T02:30:22.806Z,4.97
2024-02-02T02:32:50.832Z,4.86
2024-02-02T02:35:18.617Z,4.90
2024-02-02T02:37:46.484Z,4.93
2024-02-02T02:40:14.206Z,4.93
2024-02-02T02:42:42.247Z,4.89
2024-02-02T02:45:10.504Z,4.76
2024-02-02T02:47:38.737Z,4.79
2024-02-02T02:50:07.368Z,4.80
2024-02-02T02:52:35.072Z,4.79
2024-02-02T02:55:02.861Z,4.68
2024-02-02T02:57:30.675Z,4.63
2024-02-02T02:59:58.634Z,4.58
2024-02-02T03:02:26.397Z,4.66
2024-02-02T03:04:54.037Z,4.63
2024-02-02T03:07:21.943Z,4.65
2024-02-02T03:09:49.874Z,4.77
2024-02-02T03:12:17.709Z,4.76
2024-02-02T03:14:45.927Z,4.86
2024-02-02T03:17:13.979Z,5.01
2024-02-02T03:19:41.773Z,4.96
2024-02-02T03:22:09.650Z,4.99
2024-02-02T03:24:37.759Z,4.97
2024-02-02T03:27:05.806Z,4.93
2024-02-02T03:29:33.729Z,4.87
2024-02-02T03:32:01.416Z,4.85
2024-02-02T03:34:29.337Z,4.87
2024-02-02T03:36:57.214Z,4.75
2024-02-02T03:39:25.480Z,4.83
2024-02-02T03:41:53.179Z,4.85
2024-02-02T03:44:21.150Z,4.80
2024-02-02T03:46:49.136Z,4.90
2024-02-02T03:49:17.660Z,4.89
2024-02-02T03:51:45.884Z,4.88
2024-02-02T03:54:14.292Z,4.86
2024-02-02T03:56:44.204Z,4.83
2024-02-02T03:59:12.208Z,4.67
2024-02-02T04:01:39.920Z,4.84
2024-02-02T04:04:08.367Z,4.88
2024-02-02T04:06:36.346Z,4.88
2024-02-02T04:09:05.268Z,5.04
2024-02-02T04:11:33.135Z,4.93
2024-02-02T04:14:00.871Z,4.97
2024-02-02T04:16:29.487Z,4.99
2024-02-02T04:18:57.877Z,5.09
2024-02-02T04:21:25.877Z,5.10
2024-02-02T04:23:54.010Z,5.04
2024-02-02T04:26:22.073Z,5.07
2024-02-02T04:28:50.558Z,5.02
2024-02-02T04:31:18.679Z,5.06
2024-02-02T04:33:46.597Z,5.11
2024-02-02T04:36:14.293Z,5.09
2024-02-02T04:38:43.317Z,5.12
2024-02-02T04:41:11.072Z,5.11
2024-02-02T04:43:38.715Z,5.00
2024-02-02T04:46:06.953Z,5.07
2024-02-02T04:48:35.236Z,4.99
2024-02-02T04:51:03.618Z,5.01
2024-02-02T04:53:31.628Z,5.16
2024-02-02T04:55:59.914Z,5.14
2024-02-02T04:58:29.733Z,5.12
2024-02-02T05:00:57.857Z,5.13
2024-02-02T05:03:26.205Z,5.16
2024-02-02T05:05:54.539Z,5.16
2024-02-02T05:08:22.851Z,5.06
2024-02-02T05:10:50.834Z,5.03
2024-02-02T05:13:18.978Z,4.98
2024-02-02T05:15:47.658Z,5.02
2024-02-02T05:18:15.914Z,5.25
2024-02-02T05:20:44.266Z,5.15
2024-02-02T05:23:12.176Z,5.07
2024-02-02T05:25:40.142Z,5.11
2024-02-02T05:28:07.941Z,5.06
2024-02-02T05:30:37.172Z,5.15
2024-02-02T05:33:05.930Z,5.10
2024-02-02T05:35:33.888Z,5.13
2024-02-02T05:38:01.654Z,5.08
2024-02-02T05:40:32.804Z,5.09
2024-02-02T05:43:31.418Z,5.17
2024-02-02T05:46:00.026Z,5.17
2024-02-02T05:48:27.894Z,5.14
2024-02-02T05:50:55.880Z,5.14
2024-02-02T05:53:23.563Z,5.21
2024-02-02T05:55:51.530Z,5.14
2024-02-02T05:58:19.271Z,5.10
2024-02-02T06:00:47.055Z,5.15
2024-02-02T06:03:14.905Z,5.18
2024-02-02T06:05:42.706Z,5.27
2024-02-02T06:08:10.682Z,5.16
2024-02-02T06:10:38.518Z,5.04
2024-02-02T06:13:06.296Z,5.23
2024-02-02T06:15:34.016Z,5.06
2024-02-02T06:18:01.870Z,5.06
2024-02-02T06:20:29.626Z,5.04
2024-02-02T06:22:57.465Z,4.99
2024-02-02T06:25:25.280Z,5.16
2024-02-02T06:27:53.036Z,5.07
2024-02-02T06:30:20.967Z,5.04
2024-02-02T06:32:50.655Z,5.07
2024-02-02T06:35:18.449Z,5.00
2024-02-02T06:37:46.176Z,5.07
2024-02-02T06:40:14.583Z,5.11
2024-02-02T06:42:42.372Z,5.13
2024-02-02T06:45:10.585Z,5.01
2024-02-02T06:47:39.775Z,4.93
2024-02-02T06:50:08.382Z,5.06
2024-02-02T06:52:37.518Z,5.14
2024-02-02T06:55:05.692Z,5.13
2024-02-02T06:57:33.710Z,5.10
2024-02-02T07:00:01.824Z,5.06
2024-02-02T07:02:32.315Z,5.19
2024-02-02T07:05:01.324Z,5.26
2024-02-02T07:07:29.536Z,5.20
2024-02-02T07:09:57.769Z,5.17
2024-02-02T07:12:43.749Z,5.29
2024-02-02T07:15:58.274Z,5.18
2024-02-02T07:18:37.679Z,5.27
2024-02-02T07:21:08.746Z,5.22
2024-02-02T07:23:38.338Z,5.20
2024-02-02T07:26:13.492Z,5.15
2024-02-02T07:28:41.401Z,5.26
2024-02-02T07:31:10.468Z,5.32
2024-02-02T07:33:42.900Z,5.33
2024-02-02T07:36:13.947Z,5.39
2024-02-02T07:38:55.084Z,5.41
2024-02-02T07:41:28.197Z,5.43
2024-02-02T07:44:03.197Z,5.48
2024-02-02T07:46:31.654Z,5.42
2024-02-02T07:48:59.636Z,5.37
2024-02-02T07:51:28.345Z,5.44
2024-02-02T07:53:56.242Z,5.53
2024-02-02T07:56:25.826Z,5.53
2024-02-02T07:58:53.950Z,5.50
2024-02-02T08:01:21.724Z,5.45
2024-02-02T08:03:49.768Z,5.48
2024-02-02T08:06:17.676Z,5.49
2024-02-02T08:08:45.495Z,5.46
2024-02-02T08:11:13.567Z,5.57
2024-02-02T08:13:41.428Z,5.56
2024-02-02T08:16:09.938Z,5.62
2024-02-02T08:18:39.884Z,5.62
2024-02-02T08:21:08.549Z,5.69
2024-02-02T08:23:38.221Z,5.73
2024-02-02T08:26:07.426Z,5.63
2024-02-02T08:28:42.274Z,5.65
2024-02-02T08:31:16.597Z,5.68
2024-02-02T08:33:44.643Z,5.72
2024-02-02T08:36:12.581Z,5.90
2024-02-02T08:38:42.170Z,5.86
2024-02-02T08:41:10.027Z,5.80
2024-02-02T08:43:38.449Z,5.96
2024-02-02T08:46:11.303Z,6.03
2024-02-02T08:48:48.182Z,6.09
2024-02-02T08:51:22.217Z,6.26
2024-02-02T08:54:11.333Z,6.27
2024-02-02T08:56:41.739Z,6.13
2024-02-02T08:59:33.135Z,6.26
2024-02-02T09:02:01.711Z,6.30
2024-02-02T09:04:53.256Z,6.51
2024-02-02T09:07:21.084Z,6.37
2024-02-02T09:09:49.741Z,6.35
2024-02-02T09:12:17.430Z,6.39
2024-02-02T09:14:46.468Z,6.34
2024-02-02T09:17:14.472Z,6.38
2024-02-02T09:19:44.627Z,6.35
2024-02-02T09:22:19.110Z,6.32
2024-02-02T09:24:52.574Z,6.31
2024-02-02T09:27:37.116Z,6.30
2024-02-02T09:30:19.438Z,6.43
2024-02-02T09:32:47.484Z,6.31
2024-02-02T09:35:53.682Z,6.53
2024-02-02T09:38:21.652Z,6.56
2024-02-02T09:41:07.669Z,6.60
2024-02-02T09:43:45.580Z,6.65
2024-02-02T09:46:23.583Z,6.82
2024-02-02T09:49:25.387Z,6.95
2024-02-02T09:52:32.725Z,6.95
2024-02-02T09:55:25.293Z,7.03
2024-02-02T09:58:40.867Z,7.01
2024-02-02T10:01:44.455Z,7.02
2024-02-02T10:04:32.160Z,7.11
2024-02-02T10:07:50.624Z,7.02
2024-02-02T10:10:56.576Z,6.93
2024-02-02T10:13:39.429Z,7.01
2024-02-02T10:16:51.378Z,7.12
2024-02-02T10:19:37.687Z,7.15
2024-02-02T10:22:36.898Z,7.15
2024-02-02T10:25:26.617Z,6.91
2024-02-02T10:28:13.256Z,7.00
2024-02-02T10:30:52.916Z,6.91
2024-02-02T10:33:59.012Z,6.99
2024-02-02T10:36:40.768Z,7.23
2024-02-02T10:39:33.994Z,7.45
2024-02-02T10:42:21.970Z,7.29
2024-02-02T10:45:17.727Z,7.61
2024-02-02T10:47:57.653Z,7.85
2024-02-02T10:50:39.494Z,8.05
2024-02-02T10:53:19.032Z,8.20
2024-02-02T10:55:59.813Z,7.97
2024-02-02T10:58:33.266Z,8.03
2024-02-02T11:01:39.426Z,7.95
2024-02-02T11:04:21.331Z,8.15
2024-02-02T11:07:07.850Z,8.08
2024-02-02T11:09:54.801Z,8.06
2024-02-02T11:12:25.895Z,7.90
2024-02-02T11:15:18.131Z,7.74
2024-02-02T11:18:09.173Z,7.66
2024-02-02T11:20:52.535Z,7.58
2024-02-02T11:23:33.270Z,7.71
2024-02-02T11:26:12.756Z,7.90
2024-02-02T11:28:56.584Z,8.08
2024-02-02T11:31:51.374Z,7.83
2024-02-02T11:34:53.229Z,7.81
2024-02-02T11:37:47.092Z,7.78
2024-02-02T11:40:16.474Z,7.81
2024-02-02T11:42:45.668Z,7.82
2024-02-02T11:45:19.530Z,7.48
2024-02-02T11:48:00.426Z,7.68
2024-02-02T11:50:44.250Z,7.52
2024-02-02T11:53:24.238Z,7.74
2024-02-02T11:55:56.873Z,7.59
2024-02-02T11:58:26.700Z,7.68
2024-02-02T12:01:00.801Z,7.63
2024-02-02T12:03:50.104Z,7.40
2024-02-02T12:06:20.745Z,7.24
2024-02-02T12:09:29.817Z,7.25
2024-02-02T12:11:58.440Z,7.35
2024-02-02T12:14:29.046Z,7.53
2024-02-02T12:16:56.938Z,7.50
2024-02-02T12:19:24.810Z,7.28
2024-02-02T12:21:53.286Z,7.29
2024-02-02T12:24:23.601Z,7.21
2024-02-02T12:26:51.542Z,7.20
2024-02-02T12:29:19.629Z,7.13
2024-02-02T12:31:47.727Z,7.14
2024-02-02T12:34:16.469Z,6.98
2024-02-02T12:36:44.261Z,6.97
2024-02-02T12:39:12.015Z,6.94
2024-02-02T12:41:40.793Z,6.84
2024-02-02T12:44:09.023Z,6.83
2024-02-02T12:46:46.639Z,6.78
2024-02-02T12:49:14.833Z,6.74
2024-02-02T12:51:44.065Z,6.73
2024-02-02T12:54:12.182Z,6.76
2024-02-02T12:56:40.469Z,6.80
2024-02-02T12:59:14.282Z,6.81
2024-02-02T13:01:43.196Z,6.87
2024-02-02T13:04:12.266Z,6.79
2024-02-02T13:06:43.080Z,6.83
2024-02-02T13:09:20.933Z,6.79
2024-02-02T13:11:49.300Z,6.76
2024-02-02T13:14:37.421Z,6.77
2024-02-02T13:17:13.880Z,6.84
2024-02-02T13:19:49.661Z,6.65
2024-02-02T13:22:30.467Z,6.64
2024-02-02T13:24:58.595Z,6.39
2024-02-02T13:27:32.489Z,6.28
2024-02-02T13:30:04.197Z,6.14
2024-02-02T13:32:35.021Z,6.02
2024-02-02T13:35:07.557Z,5.83
2024-02-02T13:37:39.541Z,5.83
2024-02-02T13:40:11.381Z,5.73
2024-02-02T13:42:42.737Z,5.66
2024-02-02T13:45:12.795Z,5.62
2024-02-02T13:47:41.079Z,5.54
2024-02-02T13:50:21.241Z,5.46
2024-02-02T13:52:51.277Z,5.34
2024-02-02T13:55:22.132Z,5.47
2024-02-02T13:57:55.840Z,5.35
2024-02-02T14:00:31.815Z,5.37
2024-02-02T14:03:09.815Z,5.42
2024-02-02T14:05:39.138Z,5.44
2024-02-02T14:08:07.943Z,5.49
2024-02-02T14:10:46.373Z,5.62
2024-02-02T14:13:18.646Z,5.66
2024-02-02T14:15:49.500Z,5.76
2024-02-02T14:18:21.885Z,5.73
2024-02-02T14:20:49.999Z,5.69
2024-02-02T14:23:17.737Z,5.69
2024-02-02T14:25:45.602Z,5.57
2024-02-02T14:28:15.684Z,5.63
2024-02-02T14:30:45.157Z,5.71
2024-02-02T14:33:22.079Z,5.84
2024-02-02T14:35:53.804Z,5.91
2024-02-02T14:38:21.554Z,5.97
2024-02-02T14:40:50.080Z,5.86
2024-02-02T14:43:18.097Z,5.96
2024-02-02T14:45:46.148Z,6.07
2024-02-02T14:48:14.671Z,6.04
2024-02-02T14:50:42.621Z,6.15
2024-02-02T14:53:10.338Z,6.14
2024-02-02T14:55:41.333Z,6.07
2024-02-02T14:58:09.515Z,6.10
2024-02-02T15:00:45.781Z,6.15
2024-02-02T15:03:14.379Z,6.08
2024-02-02T15:05:42.552Z,6.04
2024-02-02T15:08:11.552Z,6.15
2024-02-02T15:10:42.342Z,6.45
2024-02-02T15:13:11.828Z,6.67
2024-02-02T15:15:39.901Z,6.80
2024-02-02T15:18:08.095Z,7.01
2024-02-02T15:20:36.035Z,6.91
2024-02-02T15:23:03.872Z,7.06
2024-02-02T15:25:31.693Z,7.23
2024-02-02T15:27:59.453Z,7.27
2024-02-02T15:30:27.299Z,7.36
2024-02-02T15:32:55.129Z,7.45
2024-02-02T15:35:23.003Z,7.56
2024-02-02T15:37:50.967Z,7.65
2024-02-02T15:40:20.993Z,7.68
2024-02-02T15:42:51.552Z,7.62
2024-02-02T15:45:19.733Z,7.60
2024-02-02T15:47:51.359Z,7.56
2024-02-02T15:50:19.838Z,7.67
2024-02-02T15:52:48.151Z,8.06
2024-02-02T15:55:16.204Z,8.00
2024-02-02T15:57:46.873Z,7.97
2024-02-02T16:00:17.952Z,8.24
2024-02-02T16:02:46.533Z,8.13
2024-02-02T16:05:20.276Z,8.25
2024-02-02T16:07:48.302Z,8.31
2024-02-02T16:10:18.382Z,8.40
2024-02-02T16:12:46.755Z,8.43
2024-02-02T16:15:14.723Z,8.26
2024-02-02T16:17:43.092Z,8.30
2024-02-02T16:20:11.894Z,8.43
2024-02-02T16:22:41.064Z,8.47
2024-02-02T16:25:10.284Z,8.49
2024-02-02T16:27:38.936Z,8.42
2024-02-02T16:30:07.630Z,8.54
2024-02-02T16:32:35.491Z,8.81
2024-02-02T16:35:05.008Z,8.83
2024-02-02T16:37:32.782Z,8.85
2024-02-02T16:40:00.858Z,9.06
2024-02-02T16:42:28.627Z,8.97
2024-02-02T16:44:56.551Z,8.98
2024-02-02T16:47:24.201Z,8.89
2024-02-02T16:49:52.306Z,8.79
2024-02-02T16:52:20.285Z,8.98
2024-02-02T16:54:48.845Z,9.10
2024-02-02T16:57:16.586Z,9.29
2024-02-02T16:59:44.509Z,9.19
2024-02-02T17:02:12.517Z,9.27
2024-02-02T17:04:43.355Z,9.14
2024-02-02T17:07:11.549Z,9.19
2024-02-02T17:09:40.135Z,9.25
2024-02-02T17:12:08.746Z,9.44
2024-02-02T17:14:36.560Z,9.34
2024-02-02T17:17:04.496Z,9.56
2024-02-02T17:19:32.431Z,9.45
2024-02-02T17:22:00.269Z,9.47
2024-02-02T17:24:28.030Z,9.53
2024-02-02T17:26:55.772Z,9.54
2024-02-02T17:29:23.556Z,9.57
2024-02-02T17:31:52.706Z,9.56
2024-02-02T17:34:20.779Z,9.65
2024-02-02T17:36:48.765Z,9.38
2024-02-02T17:39:16.619Z,9.54
2024-02-02T17:41:44.409Z,9.60
2024-02-02T17:44:15.064Z,9.42
2024-02-02T17:46:43.826Z,9.64
2024-02-02T17:49:14.620Z,9.59
2024-02-02T17:51:42.502Z,9.29
2024-02-02T17:54:10.441Z,9.74
2024-02-02T17:56:38.364Z,9.73
2024-02-02T17:59:06.109Z,9.52
2024-02-02T18:01:35.224Z,9.43
2024-02-02T18:04:03.258Z,9.40
2024-02-02T18:06:31.330Z,9.45
2024-02-02T18:08:59.132Z,9.72
2024-02-02T18:11:27.999Z,9.64
2024-02-02T18:13:55.952Z,9.63
2024-02-02T18:16:23.623Z,9.87
2024-02-02T18:18:51.574Z,9.75
2024-02-02T18:21:19.546Z,9.85
2024-02-02T18:23:47.365Z,9.76
2024-02-02T18:26:15.168Z,9.60
2024-02-02T18:28:42.949Z,9.74
2024-02-02T18:31:10.786Z,9.79
2024-02-02T18:33:39.956Z,9.93
2024-02-02T18:36:08.394Z,9.89
2024-02-02T18:38:38.572Z,9.87
2024-02-02T18:41:07.823Z,9.88
2024-02-02T18:43:35.501Z,9.78
2024-02-02T18:46:03.431Z,9.93
2024-02-02T18:48:32.660Z,9.96
2024-02-02T18:51:01.682Z,9.79
2024-02-02T18:53:29.469Z,9.79
2024-02-02T18:55:58.241Z,9.86
2024-02-02T18:58:32.190Z,9.92
2024-02-02T19:01:07.421Z,9.98
2024-02-02T19:03:35.377Z,9.95
2024-02-02T19:06:03.784Z,9.94
2024-02-02T19:08:31.798Z,9.99
2024-02-02T19:11:02.414Z,10.19
2024-02-02T19:13:30.253Z,9.86
2024-02-02T19:16:00.046Z,10.02
2024-02-02T19:18:28.173Z,10.15
2024-02-02T19:20:58.896Z,10.37
2024-02-02T19:23:26.619Z,10.49
2024-02-02T19:25:54.471Z,10.48
2024-02-02T19:28:22.268Z,10.45
2024-02-02T19:30:54.210Z,10.45
2024-02-02T19:33:22.323Z,10.45
2024-02-02T19:35:50.060Z,10.38
2024-02-02T19:38:17.938Z,10.22
2024-02-02T19:40:45.670Z,10.07
2024-02-02T19:43:13.655Z,10.15
2024-02-02T19:45:42.016Z,10.20
2024-02-02T19:48:10.026Z,10.41
2024-02-02T19:50:37.760Z,10.43
2024-02-02T19:53:07.515Z,10.25
2024-02-02T19:55:35.270Z,10.32
2024-02-02T19:58:03.026Z,10.15
2024-02-02T20:00:32.976Z,10.33
2024-02-02T20:03:00.994Z,10.57
2024-02-02T20:05:31.772Z,10.83
2024-02-02T20:07:59.628Z,10.78
2024-02-02T20:10:27.338Z,10.94
2024-02-02T20:12:55.245Z,10.84
2024-02-02T20:15:23.044Z,10.73
2024-02-02T20:17:50.942Z,10.69
2024-02-02T20:20:18.767Z,10.48
2024-02-02T20:22:46.650Z,10.49
2024-02-02T20:25:14.402Z,10.19
2024-02-02T20:27:42.150Z,10.10
2024-02-02T20:30:10.762Z,10.18
2024-02-02T20:32:38.482Z,9.94
2024-02-02T20:35:08.213Z,9.95
2024-02-02T20:37:35.973Z,10.00
2024-02-02T20:40:05.397Z,10.07
2024-02-02T20:42:33.262Z,10.26
2024-02-02T20:45:03.243Z,10.31
2024-02-02T20:47:33.838Z,10.38
2024-02-02T20:50:01.636Z,10.32
2024-02-02T20:52:29.949Z,10.34
2024-02-02T20:54:57.916Z,10.51
2024-02-02T20:57:26.758Z,10.53
2024-02-02T20:59:54.685Z,10.38
2024-02-02T21:02:22.477Z,10.96
2024-02-02T21:04:52.234Z,11.12
2024-02-02T21:07:20.217Z,11.19
2024-02-02T21:09:47.996Z,11.23
2024-02-02T21:12:15.750Z,11.00
2024-02-02T21:14:43.492Z,11.00
2024-02-02T21:17:11.701Z,10.85
2024-02-02T21:19:41.077Z,10.77
2024-02-02T21:22:08.882Z,10.60
2024-02-02T21:24:36.606Z,10.50
2024-02-02T21:27:04.765Z,10.40
2024-02-02T21:29:32.819Z,10.83
2024-02-02T21:32:00.895Z,10.84
2024-02-02T21:34:28.725Z,10.68
2024-02-02T21:36:56.840Z,10.84
2024-02-02T21:39:24.552Z,10.77
2024-02-02T21:41:52.330Z,10.59
2024-02-02T21:44:22.245Z,10.79
2024-02-02T21:46:51.225Z,10.91
2024-02-02T21:49:19.139Z,11.02
2024-02-02T21:51:47.022Z,10.85
2024-02-02T21:54:14.954Z,10.97
2024-02-02T21:56:43.745Z,10.92
2024-02-02T21:59:11.529Z,11.11
2024-02-02T22:01:39.868Z,10.85
2024-02-02T22:04:07.780Z,10.86
2024-02-02T22:06:35.602Z,10.51
2024-02-02T22:09:03.943Z,10.49
2024-02-02T22:11:31.657Z,10.39
2024-02-02T22:13:59.569Z,10.18
2024-02-02T22:16:27.394Z,10.41
2024-02-02T22:18:55.355Z,10.75
2024-02-02T22:21:26.526Z,10.53
2024-02-02T22:23:54.270Z,10.16
2024-02-02T22:26:22.632Z,10.60
2024-02-02T22:28:50.611Z,10.61
2024-02-02T22:31:22.165Z,10.29
2024-02-02T22:33:51.589Z,10.48
2024-02-02T22:36:27.165Z,10.20
2024-02-02T22:38:56.309Z,10.12
2024-02-02T22:41:32.942Z,10.17
2024-02-02T22:44:02.926Z,10.41
2024-02-02T22:46:32.512Z,10.80
2024-02-02T22:49:01.454Z,11.06
2024-02-02T22:51:29.534Z,11.16
2024-02-02T22:53:57.669Z,10.92
2024-02-02T22:56:25.745Z,10.73
2024-02-02T22:58:53.602Z,10.54
2024-02-02T23:01:21.427Z,10.53
2024-02-02T23:03:49.454Z,10.66
2024-02-02T23:06:17.401Z,10.76
2024-02-02T23:08:45.286Z,10.53
2024-02-02T23:11:16.076Z,10.77
2024-02-02T23:13:45.462Z,10.51
2024-02-02T23:16:14.023Z,10.73
2024-02-02T23:18:41.788Z,10.78
2024-02-02T23:21:10.118Z,10.78
2024-02-02T23:23:37.937Z,10.67
2024-02-02T23:26:06.122Z,10.76
2024-02-02T23:28:33.984Z,10.68
2024-02-02T23:31:02.266Z,10.61
2024-02-02T23:33:30.508Z,10.50
2024-02-02T23:35:58.518Z,10.55
2024-02-02T23:38:26.208Z,10.60
2024-02-02T23:40:54.313Z,10.59
2024-02-02T23:43:22.071Z,10.68
2024-02-02T23:45:50.115Z,10.75
2024-02-02T23:48:18.564Z,10.60
2024-02-02T23:50:46.627Z,10.89
2024-02-02T23:53:14.461Z,10.98
2024-02-02T23:55:42.369Z,10.74
2024-02-02T23:58:10.143Z,10.56
